Time;durP1;ratioP1;P1;durP2;ratioP2;P2;SDS_P1;SDS_P2;PMS_P1;PMS_P2;Temp;Humidity;BMP_temperature;BMP_pressure;BME280_temperature;BME280_humidity;BME280_pressure;Samples;Min_cycle;Max_cycle;Signal;HPM_P1;HPM_P2
2023/04/30 00:01:57;;;;;;;92.53;9.80;;;;;;;;;;4983112;28;20277;-59
2023/04/30 00:04:22;;;;;;;102.88;10.02;;;;;;;;;;4985393;28;20407;-56
2023/04/30 00:06:47;;;;;;;113.55;10.18;;;;;;;;;;4985552;28;20530;-60
2023/04/30 00:09:12;;;;;;;90.72;9.18;;;;;;;;;;4986543;28;20040;-57
2023/04/30 00:11:38;;;;;;;97.60;9.43;;;;;;;;;;4981858;28;20034;-58
2023/04/30 00:14:03;;;;;;;105.07;9.93;;;;;;;;;;4985404;28;20022;-57
2023/04/30 00:16:28;;;;;;;102.50;10.02;;;;;;;;;;4986583;28;20039;-58
2023/04/30 00:18:53;;;;;;;116.68;10.27;;;;;;;;;;4985851;28;20045;-58
2023/04/30 00:21:19;;;;;;;104.85;9.85;;;;;;;;;;4987058;28;20034;-56
2023/04/30 00:23:44;;;;;;;137.23;11.37;;;;;;;;;;4986497;28;20851;-57
2023/04/30 00:26:09;;;;;;;104.57;10.20;;;;;;;;;;4984860;28;20680;-57
2023/04/30 00:28:34;;;;;;;95.18;9.65;;;;;;;;;;4986648;28;20034;-58
2023/04/30 00:31:00;;;;;;;94.17;9.83;;;;;;;;;;4984829;28;20864;-57
2023/04/30 00:33:25;;;;;;;121.50;11.38;;;;;;;;;;4985865;28;20981;-58
2023/04/30 00:35:50;;;;;;;91.35;9.73;;;;;;;;;;4984633;28;20042;-57
2023/04/30 00:38:16;;;;;;;93.43;9.63;;;;;;;;;;4986152;28;20087;-58
2023/04/30 00:40:42;;;;;;;129.90;10.93;;;;;;;;;;4986904;28;20115;-58
2023/04/30 00:43:07;;;;;;;109.25;10.23;;;;;;;;;;4986723;28;20030;-58
2023/04/30 00:45:32;;;;;;;108.10;10.57;;;;;;;;;;4984967;28;20424;-58
2023/04/30 00:47:58;;;;;;;95.40;9.75;;;;;;;;;;4984381;28;20264;-61
2023/04/30 00:50:23;;;;;;;84.97;9.27;;;;;;;;;;4986096;28;21214;-58
2023/04/30 00:52:49;;;;;;;117.18;10.13;;;;;;;;;;4985015;28;20453;-60
2023/04/30 00:55:15;;;;;;;88.35;9.55;;;;;;;;;;4984433;28;20074;-60
2023/04/30 00:57:41;;;;;;;107.25;10.60;;;;;;;;;;4985490;28;20128;-59
2023/04/30 01:00:10;;;;;;;97.25;9.93;;;;;;;;;;4985054;28;20723;-58
2023/04/30 01:02:39;;;;;;;90.47;9.90;;;;;;;;;;4984636;28;20014;-58
2023/04/30 01:05:05;;;;;;;118.15;10.82;;;;;;;;;;4985278;28;20022;-59
2023/04/30 01:07:31;;;;;;;96.45;10.20;;;;;;;;;;4985718;28;20050;-57
2023/04/30 01:09:56;;;;;;;99.28;10.15;;;;;;;;;;4983760;28;20082;-57
2023/04/30 01:12:37;;;;;;;118.57;11.13;;;;;;;;;;4983147;28;20038;-60
2023/04/30 01:15:08;;;;;;;115.80;11.25;;;;;;;;;;4982402;28;20071;-57
2023/04/30 01:17:34;;;;;;;92.60;10.00;;;;;;;;;;4984694;28;20039;-58
2023/04/30 01:20:00;;;;;;;102.45;11.05;;;;;;;;;;4982805;28;20034;-57
2023/04/30 01:22:25;;;;;;;120.55;10.88;;;;;;;;;;4983464;28;20041;-58
2023/04/30 01:24:50;;;;;;;102.97;10.77;;;;;;;;;;4987756;28;20030;-59
2023/04/30 01:27:22;;;;;;;106.77;11.30;;;;;;;;;;4984163;28;20034;-59
2023/04/30 01:29:48;;;;;;;112.03;10.47;;;;;;;;;;4984895;28;20031;-57
2023/04/30 01:32:13;;;;;;;97.65;9.63;;;;;;;;;;4983960;28;20125;-57
2023/04/30 01:34:38;;;;;;;110.45;11.05;;;;;;;;;;4984008;28;20058;-58
2023/04/30 01:37:15;;;;;;;89.90;10.30;;;;;;;;;;4982826;28;20186;-59
2023/04/30 01:39:55;;;;;;;102.72;10.75;;;;;;;;;;4984782;28;20419;-59
2023/04/30 01:42:21;;;;;;;90.78;10.15;;;;;;;;;;4984159;28;20031;-59
2023/04/30 01:44:49;;;;;;;116.90;11.52;;;;;;;;;;4984160;28;21175;-58
2023/04/30 01:47:14;;;;;;;104.63;11.23;;;;;;;;;;4986804;28;20819;-58
2023/04/30 01:49:45;;;;;;;105.53;11.38;;;;;;;;;;4984666;28;20170;-58
2023/04/30 01:52:16;;;;;;;111.80;11.57;;;;;;;;;;4983621;28;20041;-57
2023/04/30 01:54:48;;;;;;;97.50;10.30;;;;;;;;;;4987603;28;20033;-58
2023/04/30 01:57:20;;;;;;;97.40;11.10;;;;;;;;;;4984078;28;20030;-59
2023/04/30 01:59:45;;;;;;;;;;;;;;;;;;4977429;28;20258;-59
2023/04/30 02:02:10;;;;;;;93.88;10.80;;;;;;;;;;4984184;28;19924;-60
2023/04/30 02:04:35;;;;;;;79.82;9.98;;;;;;;;;;4983110;28;20404;-58
2023/04/30 02:07:01;;;;;;;109.18;10.90;;;;;;;;;;4983778;28;20046;-59
2023/04/30 02:09:26;;;;;;;110.63;11.40;;;;;;;;;;4986427;28;20452;-59
2023/04/30 02:11:51;;;;;;;97.40;11.20;;;;;;;;;;4984455;28;20269;-58
2023/04/30 02:14:16;;;;;;;103.55;11.02;;;;;;;;;;4967739;28;21218;-57
2023/04/30 02:16:42;;;;;;;103.22;10.90;;;;;;;;;;4986172;28;20621;-58
2023/04/30 02:19:07;;;;;;;83.72;10.35;;;;;;;;;;4983824;28;20022;-59
2023/04/30 02:21:32;;;;;;;94.32;11.05;;;;;;;;;;4981380;28;20608;-57
2023/04/30 02:23:57;;;;;;;111.50;10.70;;;;;;;;;;4983327;28;20030;-57
2023/04/30 02:26:23;;;;;;;115.10;11.43;;;;;;;;;;4985002;28;20415;-58
2023/04/30 02:28:48;;;;;;;115.27;11.30;;;;;;;;;;4982561;28;20690;-59
2023/04/30 02:31:13;;;;;;;95.07;10.30;;;;;;;;;;4981543;28;20769;-59
2023/04/30 02:33:38;;;;;;;115.65;11.13;;;;;;;;;;4985906;28;20293;-59
2023/04/30 02:36:04;;;;;;;116.87;10.40;;;;;;;;;;4981550;28;20436;-60
2023/04/30 02:38:29;;;;;;;109.90;11.20;;;;;;;;;;4985991;28;20898;-58
2023/04/30 02:40:55;;;;;;;99.32;10.98;;;;;;;;;;4983996;28;20042;-58
2023/04/30 02:43:20;;;;;;;91.43;10.48;;;;;;;;;;4983623;28;20031;-59
2023/04/30 02:45:45;;;;;;;101.22;10.30;;;;;;;;;;4981607;28;20026;-60
2023/04/30 02:48:10;;;;;;;100.33;11.23;;;;;;;;;;4981596;28;20067;-60
2023/04/30 02:50:35;;;;;;;125.80;12.02;;;;;;;;;;4984045;28;20296;-57
2023/04/30 02:53:01;;;;;;;106.38;11.38;;;;;;;;;;4981006;28;20030;-59
2023/04/30 02:55:26;;;;;;;102.93;10.70;;;;;;;;;;4965696;28;20026;-59
2023/04/30 02:57:51;;;;;;;95.75;10.65;;;;;;;;;;4982960;28;20032;-59
2023/04/30 03:00:17;;;;;;;110.67;10.97;;;;;;;;;;4984207;28;20029;-59
2023/04/30 03:02:42;;;;;;;97.63;11.55;;;;;;;;;;4983189;28;20261;-58
2023/04/30 03:05:07;;;;;;;97.45;10.88;;;;;;;;;;4982008;28;20033;-57
2023/04/30 03:07:32;;;;;;;97.50;11.73;;;;;;;;;;4984599;28;20284;-57
2023/04/30 03:09:58;;;;;;;97.43;11.00;;;;;;;;;;4982650;28;20594;-59
2023/04/30 03:12:23;;;;;;;114.93;11.03;;;;;;;;;;4982418;28;20775;-59
2023/04/30 03:14:48;;;;;;;114.15;11.95;;;;;;;;;;4983214;28;20296;-59
2023/04/30 03:17:13;;;;;;;99.73;10.67;;;;;;;;;;4981295;28;20126;-58
2023/04/30 03:19:39;;;;;;;93.07;10.87;;;;;;;;;;4984709;28;20293;-57
2023/04/30 03:22:04;;;;;;;92.72;11.88;;;;;;;;;;4983845;28;20301;-58
2023/04/30 03:24:29;;;;;;;103.05;10.95;;;;;;;;;;4981780;28;20499;-58
2023/04/30 03:26:55;;;;;;;103.15;11.20;;;;;;;;;;4982279;28;20066;-57
2023/04/30 03:29:20;;;;;;;102.13;11.77;;;;;;;;;;4979487;28;20521;-57
2023/04/30 03:31:45;;;;;;;100.33;11.27;;;;;;;;;;4982665;28;20042;-59
2023/04/30 03:34:10;;;;;;;108.80;11.85;;;;;;;;;;4982373;28;20718;-58
2023/04/30 03:36:36;;;;;;;101.27;11.50;;;;;;;;;;4980726;28;20084;-59
2023/04/30 03:39:01;;;;;;;108.03;11.75;;;;;;;;;;4986748;28;20292;-58
2023/04/30 03:41:26;;;;;;;97.25;11.55;;;;;;;;;;4987209;28;20094;-59
2023/04/30 03:43:52;;;;;;;169.65;13.75;;;;;;;;;;4985397;28;20079;-59
2023/04/30 03:46:17;;;;;;;103.35;12.27;;;;;;;;;;4987169;28;20042;-58
2023/04/30 03:48:43;;;;;;;90.75;11.40;;;;;;;;;;4988689;28;20141;-58
2023/04/30 03:51:08;;;;;;;116.78;12.65;;;;;;;;;;4985711;28;20045;-57
2023/04/30 03:53:33;;;;;;;111.78;11.80;;;;;;;;;;4985445;28;20049;-57
2023/04/30 03:55:59;;;;;;;107.90;11.73;;;;;;;;;;4986895;28;20045;-58
2023/04/30 03:58:24;;;;;;;97.45;11.38;;;;;;;;;;4985321;28;20109;-59
2023/04/30 04:00:50;;;;;;;98.05;11.27;;;;;;;;;;4983814;28;20543;-58
2023/04/30 04:03:15;;;;;;;105.25;11.82;;;;;;;;;;4983938;28;20018;-58
2023/04/30 04:05:41;;;;;;;104.90;11.85;;;;;;;;;;4991024;28;20039;-57
2023/04/30 04:08:06;;;;;;;94.70;11.80;;;;;;;;;;4997809;28;20022;-59
2023/04/30 04:10:32;;;;;;;116.47;12.23;;;;;;;;;;4983789;28;20091;-57
2023/04/30 04:12:57;;;;;;;102.80;9.60;;;;;;;;;;4966708;28;21037;-59
2023/04/30 04:15:22;;;;;;;91.60;11.13;;;;;;;;;;4984134;28;20037;-59
2023/04/30 04:17:48;;;;;;;104.75;11.48;;;;;;;;;;4988123;28;20277;-57
2023/04/30 04:20:13;;;;;;;92.40;10.93;;;;;;;;;;4984514;28;20034;-58
2023/04/30 04:22:38;;;;;;;97.20;11.00;;;;;;;;;;4984494;28;20053;-58
2023/04/30 04:25:03;;;;;;;72.37;10.57;;;;;;;;;;4983602;28;20600;-58
2023/04/30 04:27:29;;;;;;;104.10;12.80;;;;;;;;;;4987520;28;20730;-59
2023/04/30 04:29:54;;;;;;;127.40;12.90;;;;;;;;;;4986192;28;20025;-58
2023/04/30 04:32:21;;;;;;;92.37;10.93;;;;;;;;;;4986003;28;20272;-60
2023/04/30 04:34:46;;;;;;;98.82;11.65;;;;;;;;;;4990953;28;20270;-57
2023/04/30 04:37:11;;;;;;;87.25;10.88;;;;;;;;;;4983789;28;20127;-59
2023/04/30 04:39:37;;;;;;;100.68;11.07;;;;;;;;;;4984123;28;20022;-57
2023/04/30 04:42:03;;;;;;;103.65;11.95;;;;;;;;;;4985882;28;20038;-59
2023/04/30 04:44:29;;;;;;;105.93;12.07;;;;;;;;;;4984017;28;20066;-59
2023/04/30 04:46:55;;;;;;;98.53;12.30;;;;;;;;;;4983530;28;20126;-59
2023/04/30 04:49:20;;;;;;;112.38;12.27;;;;;;;;;;4984353;28;20742;-57
2023/04/30 04:51:46;;;;;;;104.38;12.02;;;;;;;;;;4985350;28;20052;-58
2023/04/30 04:54:11;;;;;;;95.38;11.57;;;;;;;;;;4984251;28;20463;-58
2023/04/30 04:56:36;;;;;;;84.80;10.57;;;;;;;;;;4984553;28;20030;-59
2023/04/30 04:59:01;;;;;;;93.80;11.43;;;;;;;;;;4983970;28;20250;-59
2023/04/30 05:01:28;;;;;;;115.20;12.82;;;;;;;;;;4986506;28;20038;-58
2023/04/30 05:03:53;;;;;;;153.55;13.98;;;;;;;;;;4987376;28;20034;-59
2023/04/30 05:06:19;;;;;;;100.82;9.73;;;;;;;;;;4985093;28;20111;-59
2023/04/30 05:08:44;;;;;;;107.25;12.65;;;;;;;;;;4984521;28;20041;-57
2023/04/30 05:11:09;;;;;;;106.40;12.00;;;;;;;;;;4986560;28;20457;-59
2023/04/30 05:13:35;;;;;;;101.75;11.90;;;;;;;;;;4983589;28;20030;-58
2023/04/30 05:16:00;;;;;;;111.50;12.85;;;;;;;;;;4984494;28;20078;-59
2023/04/30 05:18:25;;;;;;;107.40;12.43;;;;;;;;;;4986161;28;20042;-57
2023/04/30 05:20:50;;;;;;;112.40;12.23;;;;;;;;;;4984601;28;21000;-58
2023/04/30 05:23:16;;;;;;;115.20;12.82;;;;;;;;;;4984104;28;20304;-58
2023/04/30 05:25:41;;;;;;;90.20;11.87;;;;;;;;;;4982281;28;20030;-58
2023/04/30 05:28:06;;;;;;;90.03;10.83;;;;;;;;;;4987132;28;20272;-59
2023/04/30 05:30:31;;;;;;;136.52;13.15;;;;;;;;;;4982203;28;20273;-59
2023/04/30 05:32:57;;;;;;;108.65;12.50;;;;;;;;;;4985606;28;20014;-59
2023/04/30 05:35:22;;;;;;;111.40;10.38;;;;;;;;;;4985855;28;20058;-58
2023/04/30 05:37:47;;;;;;;83.82;11.18;;;;;;;;;;4984841;28;20467;-58
2023/04/30 05:40:13;;;;;;;109.20;12.27;;;;;;;;;;4985442;28;20022;-59
2023/04/30 05:42:39;;;;;;;98.05;11.98;;;;;;;;;;4985281;28;20261;-59
2023/04/30 05:45:05;;;;;;;92.82;11.45;;;;;;;;;;4986127;28;20443;-60
2023/04/30 05:47:30;;;;;;;106.65;12.07;;;;;;;;;;5008403;28;20090;-58
2023/04/30 05:49:56;;;;;;;90.40;11.13;;;;;;;;;;4983950;28;20164;-57
2023/04/30 05:52:22;;;;;;;95.20;11.27;;;;;;;;;;4985491;28;20372;-57
2023/04/30 05:54:47;;;;;;;97.60;11.05;;;;;;;;;;4982971;28;20030;-57
2023/04/30 05:57:12;;;;;;;96.28;11.05;;;;;;;;;;4985936;28;20247;-57
2023/04/30 05:59:38;;;;;;;108.65;11.80;;;;;;;;;;4984569;28;20034;-59
2023/04/30 06:02:03;;;;;;;88.43;10.18;;;;;;;;;;4982353;28;20038;-58
2023/04/30 06:04:28;;;;;;;92.97;11.23;;;;;;;;;;4985743;28;20530;-58
2023/04/30 06:06:53;;;;;;;108.57;11.70;;;;;;;;;;4972946;28;20274;-59
2023/04/30 06:09:19;;;;;;;96.80;11.27;;;;;;;;;;4985018;28;20145;-57
2023/04/30 06:11:47;;;;;;;81.47;10.48;;;;;;;;;;4983253;28;20053;-57
2023/04/30 06:14:13;;;;;;;90.65;9.93;;;;;;;;;;4986036;28;20014;-58
2023/04/30 06:16:38;;;;;;;106.15;10.65;;;;;;;;;;4987489;28;20048;-59
2023/04/30 06:19:03;;;;;;;85.70;10.88;;;;;;;;;;4985989;28;20075;-59
2023/04/30 06:21:28;;;;;;;82.13;10.53;;;;;;;;;;4981457;28;20038;-59
2023/04/30 06:23:54;;;;;;;131.53;12.77;;;;;;;;;;4983221;28;20257;-59
2023/04/30 06:26:19;;;;;;;100.27;10.83;;;;;;;;;;4985484;28;20037;-59
2023/04/30 06:28:45;;;;;;;102.88;11.30;;;;;;;;;;4981272;28;20266;-59
2023/04/30 06:31:10;;;;;;;95.90;10.27;;;;;;;;;;4981540;28;20038;-58
2023/04/30 06:33:35;;;;;;;76.75;9.73;;;;;;;;;;4983859;28;20653;-59
2023/04/30 06:36:00;;;;;;;77.10;9.43;;;;;;;;;;4986122;28;20092;-59
2023/04/30 06:38:26;;;;;;;96.20;10.37;;;;;;;;;;4984822;28;20022;-59
2023/04/30 06:40:51;;;;;;;88.80;10.43;;;;;;;;;;4984918;28;20034;-58
2023/04/30 06:43:16;;;;;;;75.20;9.40;;;;;;;;;;4987072;28;20023;-60
2023/04/30 06:45:41;;;;;;;70.53;9.52;;;;;;;;;;4983650;28;20258;-59
2023/04/30 06:48:07;;;;;;;76.33;9.03;;;;;;;;;;4982861;28;20028;-60
2023/04/30 06:50:32;;;;;;;102.93;10.93;;;;;;;;;;4982864;28;20709;-59
2023/04/30 06:52:57;;;;;;;58.60;8.97;;;;;;;;;;4982792;28;20416;-59
2023/04/30 06:55:23;;;;;;;89.80;10.25;;;;;;;;;;4983547;28;20289;-59
2023/04/30 06:57:48;;;;;;;78.80;9.65;;;;;;;;;;4984673;28;20419;-58
2023/04/30 07:00:14;;;;;;;66.07;8.87;;;;;;;;;;4983670;28;20068;-60
2023/04/30 07:02:39;;;;;;;50.92;8.63;;;;;;;;;;4983145;28;20288;-58
2023/04/30 07:05:05;;;;;;;59.22;8.30;;;;;;;;;;4984220;28;20029;-60
2023/04/30 07:07:31;;;;;;;75.53;9.43;;;;;;;;;;4983499;28;20043;-58
2023/04/30 07:09:56;;;;;;;66.90;8.93;;;;;;;;;;4985434;28;20108;-59
2023/04/30 07:12:22;;;;;;;63.50;9.10;;;;;;;;;;4989928;28;20446;-59
2023/04/30 07:14:47;;;;;;;66.28;9.27;;;;;;;;;;4989368;28;20277;-58
2023/04/30 07:17:12;;;;;;;65.70;8.87;;;;;;;;;;4983965;28;20027;-59
2023/04/30 07:19:37;;;;;;;65.90;8.80;;;;;;;;;;4987979;28;20030;-57
2023/04/30 07:22:03;;;;;;;58.43;8.53;;;;;;;;;;4989713;28;20337;-59
2023/04/30 07:24:28;;;;;;;56.60;8.55;;;;;;;;;;4973675;28;20280;-58
2023/04/30 07:26:53;;;;;;;69.60;8.70;;;;;;;;;;4988394;28;20119;-57
2023/04/30 07:29:18;;;;;;;64.30;8.57;;;;;;;;;;4987252;28;20760;-59
2023/04/30 07:31:44;;;;;;;61.20;8.73;;;;;;;;;;4987474;28;20069;-58
2023/04/30 07:34:09;;;;;;;59.83;8.80;;;;;;;;;;4989023;28;21035;-56
2023/04/30 07:36:34;;;;;;;56.63;8.43;;;;;;;;;;4987759;28;20261;-58
2023/04/30 07:39:00;;;;;;;62.17;8.50;;;;;;;;;;4991091;28;20026;-58
2023/04/30 07:41:25;;;;;;;56.78;7.93;;;;;;;;;;4987578;28;20048;-57
2023/04/30 07:43:51;;;;;;;104.70;10.45;;;;;;;;;;4987642;28;20696;-58
2023/04/30 07:46:16;;;;;;;94.38;10.13;;;;;;;;;;4985373;28;20591;-58
2023/04/30 07:48:41;;;;;;;64.13;8.32;;;;;;;;;;4987919;28;20450;-57
2023/04/30 07:51:06;;;;;;;54.30;7.37;;;;;;;;;;4993050;28;20061;-60
2023/04/30 07:53:32;;;;;;;73.85;8.80;;;;;;;;;;4987915;28;20030;-59
2023/04/30 07:55:57;;;;;;;68.90;8.50;;;;;;;;;;4977987;28;20102;-58
2023/04/30 07:58:22;;;;;;;62.07;7.77;;;;;;;;;;4989368;28;20041;-59
2023/04/30 08:00:47;;;;;;;61.47;7.87;;;;;;;;;;4987306;28;20065;-59
2023/04/30 08:03:12;;;;;;;63.77;8.13;;;;;;;;;;4991592;28;20113;-60
2023/04/30 08:05:38;;;;;;;64.57;8.63;;;;;;;;;;4986797;28;20254;-59
2023/04/30 08:08:03;;;;;;;59.87;7.90;;;;;;;;;;4988627;28;20023;-61
2023/04/30 08:10:28;;;;;;;47.92;7.15;;;;;;;;;;4988175;28;20346;-58
2023/04/30 08:12:54;;;;;;;69.90;8.00;;;;;;;;;;4988243;28;20034;-58
2023/04/30 08:15:20;;;;;;;93.88;9.65;;;;;;;;;;4985397;28;20083;-59
2023/04/30 08:17:47;;;;;;;55.83;6.95;;;;;;;;;;4987731;28;20022;-58
2023/04/30 08:20:12;;;;;;;58.67;7.32;;;;;;;;;;4985528;28;20026;-59
2023/04/30 08:22:38;;;;;;;47.77;6.50;;;;;;;;;;4989685;28;20022;-58
2023/04/30 08:25:03;;;;;;;60.55;7.97;;;;;;;;;;4989401;28;20026;-59
2023/04/30 08:27:29;;;;;;;58.63;7.20;;;;;;;;;;4986512;28;20046;-59
2023/04/30 08:29:55;;;;;;;46.13;5.32;;;;;;;;;;4986725;28;20026;-60
2023/04/30 08:32:20;;;;;;;58.33;6.87;;;;;;;;;;4987464;28;20034;-59
2023/04/30 08:34:45;;;;;;;53.23;6.50;;;;;;;;;;4984217;28;20041;-59
2023/04/30 08:37:10;;;;;;;60.10;7.00;;;;;;;;;;4986933;28;20121;-59
2023/04/30 08:39:35;;;;;;;53.13;6.97;;;;;;;;;;4986701;28;20109;-59
2023/04/30 08:42:02;;;;;;;50.77;5.97;;;;;;;;;;4985760;28;20273;-58
2023/04/30 08:44:28;;;;;;;62.50;7.18;;;;;;;;;;4986581;28;20149;-60
2023/04/30 08:46:54;;;;;;;59.45;6.93;;;;;;;;;;4985217;28;20057;-59
2023/04/30 08:49:22;;;;;;;52.58;6.10;;;;;;;;;;4991511;28;20026;-60
2023/04/30 08:51:48;;;;;;;71.03;7.28;;;;;;;;;;4984546;28;20045;-59
2023/04/30 08:54:14;;;;;;;67.50;7.45;;;;;;;;;;4986827;28;20029;-60
2023/04/30 08:56:40;;;;;;;68.72;7.68;;;;;;;;;;4985392;28;20030;-60
2023/04/30 08:59:05;;;;;;;53.50;6.53;;;;;;;;;;4990200;28;20044;-62
2023/04/30 09:01:31;;;;;;;60.08;6.78;;;;;;;;;;4986335;28;20484;-59
2023/04/30 09:03:56;;;;;;;89.95;7.75;;;;;;;;;;4984693;28;20293;-60
2023/04/30 09:06:21;;;;;;;89.72;8.93;;;;;;;;;;4985657;28;20204;-58
2023/04/30 09:08:47;;;;;;;61.77;7.00;;;;;;;;;;4989105;28;20444;-58
2023/04/30 09:11:23;;;;;;;53.05;6.25;;;;;;;;;;4986192;28;20431;-58
2023/04/30 09:13:50;;;;;;;114.13;9.68;;;;;;;;;;4983706;28;20026;-58
2023/04/30 09:16:15;;;;;;;64.22;6.63;;;;;;;;;;4985634;28;20847;-60
2023/04/30 09:18:40;;;;;;;66.83;6.87;;;;;;;;;;4990887;28;20475;-60
2023/04/30 09:21:07;;;;;;;69.82;6.97;;;;;;;;;;4987479;28;20268;-58
2023/04/30 09:23:33;;;;;;;91.82;7.43;;;;;;;;;;4986834;28;20040;-58
2023/04/30 09:25:59;;;;;;;55.80;6.10;;;;;;;;;;4987507;28;20679;-58
2023/04/30 09:28:27;;;;;;;71.32;6.95;;;;;;;;;;4986416;28;20080;-58
2023/04/30 09:30:52;;;;;;;75.43;7.88;;;;;;;;;;4985746;28;20026;-58
2023/04/30 09:33:18;;;;;;;68.13;7.15;;;;;;;;;;4986223;28;20501;-59
2023/04/30 09:35:43;;;;;;;60.80;6.70;;;;;;;;;;4979472;28;20048;-57
2023/04/30 09:38:25;;;;;;;48.00;6.07;;;;;;;;;;4988117;28;20030;-59
2023/04/30 09:40:51;;;;;;;;;;;;;;;;;;4987191;28;20053;-58
2023/04/30 09:43:16;;;;;;;77.07;7.40;;;;;;;;;;4984622;28;19910;-59
2023/04/30 09:45:43;;;;;;;67.95;6.57;;;;;;;;;;4984910;28;20663;-58
2023/04/30 09:48:09;;;;;;;60.83;6.13;;;;;;;;;;4986980;28;20025;-59
2023/04/30 09:50:39;;;;;;;65.97;6.25;;;;;;;;;;4987480;28;20306;-60
2023/04/30 09:53:07;;;;;;;51.35;6.13;;;;;;;;;;4986953;28;20034;-60
2023/04/30 09:55:34;;;;;;;55.17;5.18;;;;;;;;;;5017809;28;20066;-58
2023/04/30 09:58:00;;;;;;;56.15;5.68;;;;;;;;;;4986244;28;20059;-59
2023/04/30 10:00:25;;;;;;;62.97;6.47;;;;;;;;;;4985681;28;20038;-57
2023/04/30 10:02:51;;;;;;;61.83;6.10;;;;;;;;;;4987907;28;20114;-59
2023/04/30 10:05:17;;;;;;;103.45;8.45;;;;;;;;;;4977023;28;20022;-61
2023/04/30 10:07:42;;;;;;;102.55;8.65;;;;;;;;;;4981406;28;20031;-60
2023/04/30 10:10:08;;;;;;;96.47;8.00;;;;;;;;;;4981508;28;20494;-58
2023/04/30 10:12:39;;;;;;;94.80;7.80;;;;;;;;;;4981026;28;20010;-59
2023/04/30 10:15:25;;;;;;;67.13;6.87;;;;;;;;;;4980383;28;20405;-59
2023/04/30 10:17:56;;;;;;;108.68;8.38;;;;;;;;;;5010496;28;20364;-57
2023/04/30 10:20:23;;;;;;;141.27;10.43;;;;;;;;;;4980689;28;20029;-58
2023/04/30 10:22:48;;;;;;;90.80;7.65;;;;;;;;;;4982034;28;20057;-58
2023/04/30 10:25:15;;;;;;;79.50;7.00;;;;;;;;;;4984062;28;20117;-59
2023/04/30 10:27:40;;;;;;;102.30;8.05;;;;;;;;;;4983428;28;20059;-59
2023/04/30 10:30:07;;;;;;;99.55;7.50;;;;;;;;;;4983166;28;20034;-59
2023/04/30 10:32:37;;;;;;;87.90;7.47;;;;;;;;;;4981113;28;20075;-60
2023/04/30 10:35:11;;;;;;;94.00;7.65;;;;;;;;;;4981347;28;20105;-60
2023/04/30 10:37:42;;;;;;;64.45;5.43;;;;;;;;;;4985329;28;20046;-60
2023/04/30 10:40:08;;;;;;;68.75;6.32;;;;;;;;;;4969325;28;20582;-59
2023/04/30 10:42:34;;;;;;;54.60;5.22;;;;;;;;;;4981178;28;20030;-59
2023/04/30 10:45:00;;;;;;;70.97;6.30;;;;;;;;;;4982140;28;20052;-58
2023/04/30 10:47:29;;;;;;;56.60;5.40;;;;;;;;;;4984189;28;20042;-59
2023/04/30 10:50:01;;;;;;;61.53;5.65;;;;;;;;;;4982140;28;20030;-58
2023/04/30 10:52:26;;;;;;;;;;;;;;;;;;4979064;28;20567;-58
2023/04/30 10:54:52;;;;;;;84.37;6.77;;;;;;;;;;4984677;28;19924;-59
2023/04/30 10:57:19;;;;;;;73.07;6.40;;;;;;;;;;4982982;28;20039;-60
2023/04/30 10:59:51;;;;;;;79.15;6.57;;;;;;;;;;4986923;28;20052;-61
2023/04/30 11:02:16;;;;;;;112.45;7.95;;;;;;;;;;4980668;28;20030;-59
2023/04/30 11:05:00;;;;;;;113.57;7.80;;;;;;;;;;4981181;28;20026;-59
2023/04/30 11:07:27;;;;;;;62.05;5.75;;;;;;;;;;4979929;28;20035;-60
2023/04/30 11:09:55;;;;;;;75.47;6.18;;;;;;;;;;4988405;28;20754;-57
2023/04/30 11:12:27;;;;;;;67.13;5.70;;;;;;;;;;4985004;28;20044;-58
2023/04/30 11:14:57;;;;;;;95.65;6.90;;;;;;;;;;4982141;28;20640;-58
2023/04/30 11:17:23;;;;;;;77.80;6.53;;;;;;;;;;4980096;28;20495;-58
2023/04/30 11:19:50;;;;;;;100.10;7.15;;;;;;;;;;4982324;28;20029;-56
2023/04/30 11:22:16;;;;;;;80.70;6.25;;;;;;;;;;4978795;28;20068;-57
2023/04/30 11:24:53;;;;;;;75.32;5.68;;;;;;;;;;4983891;28;20084;-57
2023/04/30 11:27:20;;;;;;;89.00;6.25;;;;;;;;;;4981182;28;20157;-58
2023/04/30 11:29:46;;;;;;;104.07;7.00;;;;;;;;;;4988497;28;20062;-58
2023/04/30 11:32:12;;;;;;;115.35;7.85;;;;;;;;;;4980153;28;20129;-58
2023/04/30 11:34:37;;;;;;;83.63;6.18;;;;;;;;;;4979826;28;20061;-58
2023/04/30 11:37:02;;;;;;;104.30;7.00;;;;;;;;;;4983173;28;20494;-58
2023/04/30 11:39:28;;;;;;;101.68;6.65;;;;;;;;;;4981901;28;20292;-57
2023/04/30 11:41:54;;;;;;;104.60;7.15;;;;;;;;;;4980386;28;20488;-57
2023/04/30 11:44:26;;;;;;;128.10;8.00;;;;;;;;;;4982611;28;20030;-58
2023/04/30 11:46:51;;;;;;;106.57;7.25;;;;;;;;;;4982527;28;20039;-57
2023/04/30 11:49:17;;;;;;;124.40;8.13;;;;;;;;;;4982016;28;20026;-57
2023/04/30 11:51:42;;;;;;;95.10;6.55;;;;;;;;;;4979656;28;20052;-57
2023/04/30 11:54:08;;;;;;;118.25;7.57;;;;;;;;;;4982616;28;20034;-59
2023/04/30 11:56:36;;;;;;;115.80;7.57;;;;;;;;;;4986189;28;20058;-58
2023/04/30 11:59:08;;;;;;;91.80;6.45;;;;;;;;;;4984112;28;20022;-58
2023/04/30 12:01:33;;;;;;;;;;;;;;;;;;5017353;28;20079;-58
2023/04/30 12:03:59;;;;;;;100.82;6.28;;;;;;;;;;4983111;28;19978;-57
2023/04/30 12:06:26;;;;;;;129.68;8.02;;;;;;;;;;4985655;28;20033;-58
2023/04/30 12:08:55;;;;;;;106.45;6.68;;;;;;;;;;4986179;28;20038;-58
2023/04/30 12:11:27;;;;;;;97.57;6.65;;;;;;;;;;4983983;28;20041;-58
2023/04/30 12:13:52;;;;;;;;;;;;;;;;;;4989523;28;20018;-57
2023/04/30 12:16:18;;;;;;;94.63;6.37;;;;;;;;;;4988002;28;20420;-56
2023/04/30 12:18:43;;;;;;;128.68;7.80;;;;;;;;;;4984513;28;20379;-57
2023/04/30 12:21:09;;;;;;;115.67;7.10;;;;;;;;;;4982905;28;20045;-57
2023/04/30 12:23:35;;;;;;;103.83;6.70;;;;;;;;;;4984493;28;20372;-57
2023/04/30 12:26:00;;;;;;;100.30;6.65;;;;;;;;;;4985379;28;20266;-59
2023/04/30 12:28:26;;;;;;;106.83;7.23;;;;;;;;;;4983052;28;20095;-60
2023/04/30 12:30:52;;;;;;;109.00;7.32;;;;;;;;;;4983357;28;20734;-58
2023/04/30 12:33:17;;;;;;;131.40;8.20;;;;;;;;;;4982038;28;20042;-60
2023/04/30 12:35:43;;;;;;;121.30;7.55;;;;;;;;;;4984579;28;20035;-59
2023/04/30 12:38:08;;;;;;;99.15;6.68;;;;;;;;;;4984980;28;20130;-59
2023/04/30 12:40:34;;;;;;;128.75;8.05;;;;;;;;;;4981996;28;20049;-58
2023/04/30 12:43:06;;;;;;;102.35;6.97;;;;;;;;;;4984478;28;20026;-58
2023/04/30 12:45:45;;;;;;;113.95;7.40;;;;;;;;;;4980825;28;20038;-59
2023/04/30 12:48:10;;;;;;;67.47;5.25;;;;;;;;;;4985356;28;20111;-57
2023/04/30 12:50:37;;;;;;;100.93;6.72;;;;;;;;;;4982502;28;20042;-58
2023/04/30 12:53:02;;;;;;;51.28;4.40;;;;;;;;;;4983005;28;20113;-59
2023/04/30 12:55:27;;;;;;;63.33;5.18;;;;;;;;;;4984094;28;20053;-60
2023/04/30 12:58:03;;;;;;;90.87;5.97;;;;;;;;;;4974794;28;20026;-58
2023/04/30 13:00:28;;;;;;;86.38;6.00;;;;;;;;;;4983291;28;20384;-58
2023/04/30 13:02:54;;;;;;;118.47;7.57;;;;;;;;;;4983932;28;20019;-58
2023/04/30 13:05:19;;;;;;;131.90;8.35;;;;;;;;;;4980823;28;20298;-59
2023/04/30 13:07:45;;;;;;;103.67;6.97;;;;;;;;;;4980186;28;20882;-59
2023/04/30 13:10:11;;;;;;;126.63;8.07;;;;;;;;;;4982775;28;20317;-57
2023/04/30 13:12:36;;;;;;;77.22;5.32;;;;;;;;;;4984578;28;20369;-58
2023/04/30 13:15:02;;;;;;;100.37;6.53;;;;;;;;;;4984325;28;20065;-58
2023/04/30 13:17:28;;;;;;;96.72;6.38;;;;;;;;;;4982712;28;20147;-57
2023/04/30 13:19:53;;;;;;;97.28;6.15;;;;;;;;;;4982935;28;20018;-55
2023/04/30 13:22:18;;;;;;;119.67;7.23;;;;;;;;;;4980461;28;20034;-56
2023/04/30 13:24:43;;;;;;;88.30;6.20;;;;;;;;;;4981804;28;20057;-55
2023/04/30 13:27:09;;;;;;;85.43;5.77;;;;;;;;;;4981093;28;20039;-56
2023/04/30 13:29:34;;;;;;;70.85;5.43;;;;;;;;;;4983058;28;20281;-57
2023/04/30 13:31:59;;;;;;;71.33;5.17;;;;;;;;;;4981665;28;20045;-57
2023/04/30 13:34:25;;;;;;;104.93;7.22;;;;;;;;;;4980923;28;20288;-58
2023/04/30 13:36:52;;;;;;;76.05;5.53;;;;;;;;;;4981608;28;20031;-55
2023/04/30 13:39:18;;;;;;;76.90;5.88;;;;;;;;;;4983230;28;20017;-55
2023/04/30 13:41:44;;;;;;;119.70;7.50;;;;;;;;;;4982193;28;20867;-55
2023/04/30 13:44:09;;;;;;;70.70;5.18;;;;;;;;;;4983715;28;20010;-56
2023/04/30 13:46:34;;;;;;;78.57;5.15;;;;;;;;;;4986609;28;20409;-56
2023/04/30 13:49:00;;;;;;;81.00;5.05;;;;;;;;;;4983989;28;20079;-57
2023/04/30 13:51:25;;;;;;;113.37;6.90;;;;;;;;;;4980877;28;20023;-56
2023/04/30 13:53:51;;;;;;;131.15;7.38;;;;;;;;;;4979033;28;20285;-56
2023/04/30 13:56:16;;;;;;;75.35;4.80;;;;;;;;;;4983332;28;20042;-56
2023/04/30 13:58:42;;;;;;;79.53;5.13;;;;;;;;;;4984075;28;20505;-56
2023/04/30 14:01:07;;;;;;;93.35;5.85;;;;;;;;;;4984717;28;20035;-57
2023/04/30 14:03:33;;;;;;;56.90;4.50;;;;;;;;;;4984313;28;20042;-55
2023/04/30 14:05:58;;;;;;;63.10;5.10;;;;;;;;;;4981739;28;20049;-57
2023/04/30 14:08:23;;;;;;;74.90;5.33;;;;;;;;;;4983348;28;20261;-55
2023/04/30 14:10:48;;;;;;;65.75;4.75;;;;;;;;;;4980875;28;20280;-59
2023/04/30 14:13:14;;;;;;;86.00;5.68;;;;;;;;;;4982911;28;20030;-59
2023/04/30 14:15:39;;;;;;;78.88;5.95;;;;;;;;;;4981900;28;20045;-59